sensor_id;sensor_type;location;lat;lon;timestamp;temperature;humidity
36552;DHT22;22559;54.176;12.102;2023-07-13T00:01:48;18.40;99.90
36552;DHT22;22559;54.176;12.102;2023-07-13T00:04:19;18.40;99.90
36552;DHT22;22559;54.176;12.102;2023-07-13T00:06:46;18.40;99.90
36552;DHT22;22559;54.176;12.102;2023-07-13T00:09:16;18.40;99.90
36552;DHT22;22559;54.176;12.102;2023-07-13T00:11:43;18.30;99.90
36552;DHT22;22559;54.176;12.102;2023-07-13T00:14:10;18.30;99.90
36552;DHT22;22559;54.176;12.102;2023-07-13T00:16:37;18.30;99.90
36552;DHT22;22559;54.176;12.102;2023-07-13T00:19:03;18.30;99.90
36552;DHT22;22559;54.176;12.102;2023-07-13T00:21:29;18.30;99.90
36552;DHT22;22559;54.176;12.102;2023-07-13T00:23:55;18.30;99.90
36552;DHT22;22559;54.176;12.102;2023-07-13T00:26:21;18.20;99.90
36552;DHT22;22559;54.176;12.102;2023-07-13T00:28:46;18.20;99.90
36552;DHT22;22559;54.176;12.102;2023-07-13T00:31:13;18.20;99.90
36552;DHT22;22559;54.176;12.102;2023-07-13T00:33:42;18.10;99.90
36552;DHT22;22559;54.176;12.102;2023-07-13T00:36:09;18.10;99.90
36552;DHT22;22559;54.176;12.102;2023-07-13T00:38:35;18.10;99.90
36552;DHT22;22559;54.176;12.102;2023-07-13T00:41:02;18.10;99.90
36552;DHT22;22559;54.176;12.102;2023-07-13T00:43:29;18.10;99.90
36552;DHT22;22559;54.176;12.102;2023-07-13T00:48:26;18.10;99.90
36552;DHT22;22559;54.176;12.102;2023-07-13T00:50:56;18.10;99.90
36552;DHT22;22559;54.176;12.102;2023-07-13T00:53:25;18.10;99.90
36552;DHT22;22559;54.176;12.102;2023-07-13T00:55:53;18.10;99.90
36552;DHT22;22559;54.176;12.102;2023-07-13T00:58:19;18.00;99.90
36552;DHT22;22559;54.176;12.102;2023-07-13T01:00:47;18.00;99.90
36552;DHT22;22559;54.176;12.102;2023-07-13T01:03:14;18.10;99.90
36552;DHT22;22559;54.176;12.102;2023-07-13T01:05:40;18.10;99.90
36552;DHT22;22559;54.176;12.102;2023-07-13T01:08:06;18.00;99.90
36552;DHT22;22559;54.176;12.102;2023-07-13T01:10:32;18.00;99.90
36552;DHT22;22559;54.176;12.102;2023-07-13T01:13:09;18.10;99.90
36552;DHT22;22559;54.176;12.102;2023-07-13T01:15:47;18.10;99.90
36552;DHT22;22559;54.176;12.102;2023-07-13T01:18:16;18.00;99.90
36552;DHT22;22559;54.176;12.102;2023-07-13T01:20:57;18.10;99.90
36552;DHT22;22559;54.176;12.102;2023-07-13T01:23:23;18.10;99.90
36552;DHT22;22559;54.176;12.102;2023-07-13T01:25:50;18.00;99.90
36552;DHT22;22559;54.176;12.102;2023-07-13T01:28:16;18.00;99.90
36552;DHT22;22559;54.176;12.102;2023-07-13T01:30:43;18.00;99.90
36552;DHT22;22559;54.176;12.102;2023-07-13T01:33:12;18.00;99.90
36552;DHT22;22559;54.176;12.102;2023-07-13T01:35:38;18.00;99.90
36552;DHT22;22559;54.176;12.102;2023-07-13T01:38:04;18.00;99.90
36552;DHT22;22559;54.176;12.102;2023-07-13T01:40:30;17.90;99.90
36552;DHT22;22559;54.176;12.102;2023-07-13T01:42:56;18.00;99.90
36552;DHT22;22559;54.176;12.102;2023-07-13T01:45:21;18.00;99.90
36552;DHT22;22559;54.176;12.102;2023-07-13T01:47:47;18.00;99.90
36552;DHT22;22559;54.176;12.102;2023-07-13T01:50:13;17.90;99.90
36552;DHT22;22559;54.176;12.102;2023-07-13T01:52:38;17.90;99.90
36552;DHT22;22559;54.176;12.102;2023-07-13T01:55:04;17.90;99.90
36552;DHT22;22559;54.176;12.102;2023-07-13T01:57:30;17.80;99.90
36552;DHT22;22559;54.176;12.102;2023-07-13T01:59:56;17.80;99.90
36552;DHT22;22559;54.176;12.102;2023-07-13T02:02:22;17.80;99.90
36552;DHT22;22559;54.176;12.102;2023-07-13T02:04:48;17.80;99.90
36552;DHT22;22559;54.176;12.102;2023-07-13T02:07:13;17.80;99.90
36552;DHT22;22559;54.176;12.102;2023-07-13T02:09:40;17.70;99.90
36552;DHT22;22559;54.176;12.102;2023-07-13T02:12:08;17.80;99.90
36552;DHT22;22559;54.176;12.102;2023-07-13T02:14:33;17.70;99.90
36552;DHT22;22559;54.176;12.102;2023-07-13T02:16:59;17.70;99.90
36552;DHT22;22559;54.176;12.102;2023-07-13T02:19:25;17.70;99.90
36552;DHT22;22559;54.176;12.102;2023-07-13T02:21:50;17.70;99.90
36552;DHT22;22559;54.176;12.102;2023-07-13T02:24:16;17.70;99.90
36552;DHT22;22559;54.176;12.102;2023-07-13T02:26:44;17.70;99.90
36552;DHT22;22559;54.176;12.102;2023-07-13T02:29:10;17.70;99.90
36552;DHT22;22559;54.176;12.102;2023-07-13T02:31:36;17.70;99.90
36552;DHT22;22559;54.176;12.102;2023-07-13T02:34:02;17.70;99.90
36552;DHT22;22559;54.176;12.102;2023-07-13T02:36:28;17.60;99.90
36552;DHT22;22559;54.176;12.102;2023-07-13T02:38:54;17.50;99.90
36552;DHT22;22559;54.176;12.102;2023-07-13T02:41:19;17.40;99.90
36552;DHT22;22559;54.176;12.102;2023-07-13T02:43:45;17.40;99.90
36552;DHT22;22559;54.176;12.102;2023-07-13T02:46:11;17.40;99.90
36552;DHT22;22559;54.176;12.102;2023-07-13T02:48:38;17.40;99.90
36552;DHT22;22559;54.176;12.102;2023-07-13T02:51:04;17.30;99.90
36552;DHT22;22559;54.176;12.102;2023-07-13T02:53:30;17.30;99.90
36552;DHT22;22559;54.176;12.102;2023-07-13T02:55:56;17.30;99.90
36552;DHT22;22559;54.176;12.102;2023-07-13T02:58:22;17.20;99.90
36552;DHT22;22559;54.176;12.102;2023-07-13T03:00:48;17.20;99.90
36552;DHT22;22559;54.176;12.102;2023-07-13T03:03:16;17.20;99.90
36552;DHT22;22559;54.176;12.102;2023-07-13T03:05:44;17.20;99.90
36552;DHT22;22559;54.176;12.102;2023-07-13T03:08:11;17.20;99.90
36552;DHT22;22559;54.176;12.102;2023-07-13T03:10:37;17.20;99.90
36552;DHT22;22559;54.176;12.102;2023-07-13T03:13:04;17.20;99.90
36552;DHT22;22559;54.176;12.102;2023-07-13T03:15:30;17.20;99.90
36552;DHT22;22559;54.176;12.102;2023-07-13T03:17:56;17.20;99.90
36552;DHT22;22559;54.176;12.102;2023-07-13T03:20:21;17.20;99.90
36552;DHT22;22559;54.176;12.102;2023-07-13T03:22:47;17.10;99.90
36552;DHT22;22559;54.176;12.102;2023-07-13T03:25:13;17.20;99.90
36552;DHT22;22559;54.176;12.102;2023-07-13T03:27:38;17.10;99.90
36552;DHT22;22559;54.176;12.102;2023-07-13T03:30:05;17.20;99.90
36552;DHT22;22559;54.176;12.102;2023-07-13T03:32:32;17.10;99.90
36552;DHT22;22559;54.176;12.102;2023-07-13T03:34:57;17.20;99.90
36552;DHT22;22559;54.176;12.102;2023-07-13T03:37:23;17.20;99.90
36552;DHT22;22559;54.176;12.102;2023-07-13T03:39:49;17.10;99.90
36552;DHT22;22559;54.176;12.102;2023-07-13T03:42:15;17.10;99.90
36552;DHT22;22559;54.176;12.102;2023-07-13T03:44:41;17.10;99.90
36552;DHT22;22559;54.176;12.102;2023-07-13T03:47:07;17.10;99.90
36552;DHT22;22559;54.176;12.102;2023-07-13T03:49:34;17.10;99.90
36552;DHT22;22559;54.176;12.102;2023-07-13T03:52:01;17.10;99.90
36552;DHT22;22559;54.176;12.102;2023-07-13T03:54:27;17.10;99.90
36552;DHT22;22559;54.176;12.102;2023-07-13T03:56:52;17.00;99.90
36552;DHT22;22559;54.176;12.102;2023-07-13T03:59:18;17.00;99.90
36552;DHT22;22559;54.176;12.102;2023-07-13T04:01:44;17.00;99.90
36552;DHT22;22559;54.176;12.102;2023-07-13T04:04:10;17.00;99.90
36552;DHT22;22559;54.176;12.102;2023-07-13T04:06:35;17.00;99.90
36552;DHT22;22559;54.176;12.102;2023-07-13T04:09:03;17.00;99.90
36552;DHT22;22559;54.176;12.102;2023-07-13T04:11:31;17.00;99.90
36552;DHT22;22559;54.176;12.102;2023-07-13T04:13:57;17.00;99.90
36552;DHT22;22559;54.176;12.102;2023-07-13T04:16:23;17.00;99.90
36552;DHT22;22559;54.176;12.102;2023-07-13T04:18:49;17.00;99.90
36552;DHT22;22559;54.176;12.102;2023-07-13T04:21:15;17.10;99.90
36552;DHT22;22559;54.176;12.102;2023-07-13T04:23:41;17.10;99.90
36552;DHT22;22559;54.176;12.102;2023-07-13T04:26:07;17.10;99.90
36552;DHT22;22559;54.176;12.102;2023-07-13T04:28:33;17.10;99.90
36552;DHT22;22559;54.176;12.102;2023-07-13T04:31:00;17.20;99.90
36552;DHT22;22559;54.176;12.102;2023-07-13T04:33:26;17.20;99.90
36552;DHT22;22559;54.176;12.102;2023-07-13T04:35:53;17.20;99.90
36552;DHT22;22559;54.176;12.102;2023-07-13T04:38:23;17.20;99.90
36552;DHT22;22559;54.176;12.102;2023-07-13T04:40:50;17.20;99.90
36552;DHT22;22559;54.176;12.102;2023-07-13T04:43:16;17.10;99.90
36552;DHT22;22559;54.176;12.102;2023-07-13T04:45:42;17.20;99.90
36552;DHT22;22559;54.176;12.102;2023-07-13T04:48:07;17.30;99.90
36552;DHT22;22559;54.176;12.102;2023-07-13T04:50:36;17.30;99.90
36552;DHT22;22559;54.176;12.102;2023-07-13T04:53:01;17.30;99.90
36552;DHT22;22559;54.176;12.102;2023-07-13T04:55:28;17.30;99.90
36552;DHT22;22559;54.176;12.102;2023-07-13T04:57:56;17.30;99.90
36552;DHT22;22559;54.176;12.102;2023-07-13T05:00:24;17.30;99.90
36552;DHT22;22559;54.176;12.102;2023-07-13T05:02:50;17.30;99.90
36552;DHT22;22559;54.176;12.102;2023-07-13T05:05:16;17.30;99.90
36552;DHT22;22559;54.176;12.102;2023-07-13T05:07:42;17.40;99.90
36552;DHT22;22559;54.176;12.102;2023-07-13T05:10:08;17.40;99.90
36552;DHT22;22559;54.176;12.102;2023-07-13T05:12:34;17.50;99.90
36552;DHT22;22559;54.176;12.102;2023-07-13T05:15:01;17.60;99.90
36552;DHT22;22559;54.176;12.102;2023-07-13T05:17:26;17.50;99.90
36552;DHT22;22559;54.176;12.102;2023-07-13T05:19:52;17.60;99.90
36552;DHT22;22559;54.176;12.102;2023-07-13T05:22:17;17.60;99.90
36552;DHT22;22559;54.176;12.102;2023-07-13T05:24:43;17.70;99.90
36552;DHT22;22559;54.176;12.102;2023-07-13T05:27:09;17.80;99.90
36552;DHT22;22559;54.176;12.102;2023-07-13T05:29:34;17.90;99.90
36552;DHT22;22559;54.176;12.102;2023-07-13T05:32:00;17.90;99.90
36552;DHT22;22559;54.176;12.102;2023-07-13T05:34:26;18.00;99.90
36552;DHT22;22559;54.176;12.102;2023-07-13T05:36:52;18.00;99.90
36552;DHT22;22559;54.176;12.102;2023-07-13T05:39:18;18.00;99.90
36552;DHT22;22559;54.176;12.102;2023-07-13T05:41:44;18.10;99.90
36552;DHT22;22559;54.176;12.102;2023-07-13T05:44:10;18.20;99.90
36552;DHT22;22559;54.176;12.102;2023-07-13T05:46:35;18.30;99.90
36552;DHT22;22559;54.176;12.102;2023-07-13T05:49:01;18.30;99.90
36552;DHT22;22559;54.176;12.102;2023-07-13T05:51:27;18.40;99.90
36552;DHT22;22559;54.176;12.102;2023-07-13T05:53:52;18.40;99.90
36552;DHT22;22559;54.176;12.102;2023-07-13T05:56:18;18.50;99.90
36552;DHT22;22559;54.176;12.102;2023-07-13T05:58:43;18.50;99.90
36552;DHT22;22559;54.176;12.102;2023-07-13T06:01:11;18.50;99.90
36552;DHT22;22559;54.176;12.102;2023-07-13T06:03:38;18.60;99.90
36552;DHT22;22559;54.176;12.102;2023-07-13T06:06:08;18.70;99.90
36552;DHT22;22559;54.176;12.102;2023-07-13T06:08:35;18.80;99.90
36552;DHT22;22559;54.176;12.102;2023-07-13T06:11:07;18.90;99.90
36552;DHT22;22559;54.176;12.102;2023-07-13T06:13:35;19.10;99.90
36552;DHT22;22559;54.176;12.102;2023-07-13T06:16:01;19.20;99.90
36552;DHT22;22559;54.176;12.102;2023-07-13T06:18:30;19.20;99.90
36552;DHT22;22559;54.176;12.102;2023-07-13T06:20:56;19.30;99.90
36552;DHT22;22559;54.176;12.102;2023-07-13T06:23:22;19.40;99.90
36552;DHT22;22559;54.176;12.102;2023-07-13T06:25:48;19.40;99.90
36552;DHT22;22559;54.176;12.102;2023-07-13T06:28:13;19.40;99.90
36552;DHT22;22559;54.176;12.102;2023-07-13T06:30:39;19.50;99.90
36552;DHT22;22559;54.176;12.102;2023-07-13T06:33:05;19.60;99.90
36552;DHT22;22559;54.176;12.102;2023-07-13T06:35:31;19.70;99.90
36552;DHT22;22559;54.176;12.102;2023-07-13T06:37:56;19.90;99.90
36552;DHT22;22559;54.176;12.102;2023-07-13T06:40:22;20.00;99.90
36552;DHT22;22559;54.176;12.102;2023-07-13T06:42:47;20.20;99.90
36552;DHT22;22559;54.176;12.102;2023-07-13T06:45:13;20.40;99.90
36552;DHT22;22559;54.176;12.102;2023-07-13T06:47:38;20.80;99.90
36552;DHT22;22559;54.176;12.102;2023-07-13T06:50:04;21.00;99.90
36552;DHT22;22559;54.176;12.102;2023-07-13T06:52:30;21.10;99.90
36552;DHT22;22559;54.176;12.102;2023-07-13T06:54:56;21.40;99.90
36552;DHT22;22559;54.176;12.102;2023-07-13T06:57:21;21.60;99.90
36552;DHT22;22559;54.176;12.102;2023-07-13T06:59:47;21.90;99.90
36552;DHT22;22559;54.176;12.102;2023-07-13T07:02:13;22.20;99.90
36552;DHT22;22559;54.176;12.102;2023-07-13T07:04:39;22.40;99.90
36552;DHT22;22559;54.176;12.102;2023-07-13T07:07:04;22.50;99.90
36552;DHT22;22559;54.176;12.102;2023-07-13T07:09:30;22.50;99.90
36552;DHT22;22559;54.176;12.102;2023-07-13T07:11:57;22.40;99.90
36552;DHT22;22559;54.176;12.102;2023-07-13T07:14:22;22.20;99.90
36552;DHT22;22559;54.176;12.102;2023-07-13T07:16:49;22.20;99.90
36552;DHT22;22559;54.176;12.102;2023-07-13T07:19:15;22.40;99.90
36552;DHT22;22559;54.176;12.102;2023-07-13T07:21:41;22.70;99.90
36552;DHT22;22559;54.176;12.102;2023-07-13T07:24:07;22.90;99.90
36552;DHT22;22559;54.176;12.102;2023-07-13T07:26:33;23.20;99.90
36552;DHT22;22559;54.176;12.102;2023-07-13T07:28:58;23.10;99.90
36552;DHT22;22559;54.176;12.102;2023-07-13T07:31:24;22.80;99.90
36552;DHT22;22559;54.176;12.102;2023-07-13T07:33:50;22.40;99.90
36552;DHT22;22559;54.176;12.102;2023-07-13T07:36:16;22.20;99.90
36552;DHT22;22559;54.176;12.102;2023-07-13T07:38:42;22.40;99.90
36552;DHT22;22559;54.176;12.102;2023-07-13T07:41:08;22.30;99.90
36552;DHT22;22559;54.176;12.102;2023-07-13T07:43:34;22.40;99.90
36552;DHT22;22559;54.176;12.102;2023-07-13T07:46:00;22.10;99.90
36552;DHT22;22559;54.176;12.102;2023-07-13T07:48:26;21.70;99.90
36552;DHT22;22559;54.176;12.102;2023-07-13T07:50:51;21.70;99.90
36552;DHT22;22559;54.176;12.102;2023-07-13T07:53:17;22.00;99.90
36552;DHT22;22559;54.176;12.102;2023-07-13T07:55:43;21.90;99.90
36552;DHT22;22559;54.176;12.102;2023-07-13T07:58:08;21.70;99.90
36552;DHT22;22559;54.176;12.102;2023-07-13T08:00:34;22.00;99.90
36552;DHT22;22559;54.176;12.102;2023-07-13T08:03:01;22.30;99.90
36552;DHT22;22559;54.176;12.102;2023-07-13T08:05:27;22.70;99.90
36552;DHT22;22559;54.176;12.102;2023-07-13T08:07:53;22.70;99.90
36552;DHT22;22559;54.176;12.102;2023-07-13T08:10:19;22.80;99.90
36552;DHT22;22559;54.176;12.102;2023-07-13T08:12:45;23.10;99.90
36552;DHT22;22559;54.176;12.102;2023-07-13T08:15:12;23.60;99.90
36552;DHT22;22559;54.176;12.102;2023-07-13T08:17:38;23.90;99.90
36552;DHT22;22559;54.176;12.102;2023-07-13T08:20:04;23.60;99.90
36552;DHT22;22559;54.176;12.102;2023-07-13T08:22:30;23.50;99.90
36552;DHT22;22559;54.176;12.102;2023-07-13T08:24:56;23.30;99.90
36552;DHT22;22559;54.176;12.102;2023-07-13T08:27:26;23.20;99.90
36552;DHT22;22559;54.176;12.102;2023-07-13T08:29:52;23.10;99.90
36552;DHT22;22559;54.176;12.102;2023-07-13T08:32:19;22.70;99.90
36552;DHT22;22559;54.176;12.102;2023-07-13T08:34:45;22.30;99.90
36552;DHT22;22559;54.176;12.102;2023-07-13T08:37:11;22.30;99.90
36552;DHT22;22559;54.176;12.102;2023-07-13T08:39:37;22.50;99.90
36552;DHT22;22559;54.176;12.102;2023-07-13T08:47:32;22.30;99.90
36552;DHT22;22559;54.176;12.102;2023-07-13T08:50:01;22.40;99.90
36552;DHT22;22559;54.176;12.102;2023-07-13T08:52:35;22.70;99.90
36552;DHT22;22559;54.176;12.102;2023-07-13T08:57:35;23.40;99.90
36552;DHT22;22559;54.176;12.102;2023-07-13T09:00:01;23.70;99.90
36552;DHT22;22559;54.176;12.102;2023-07-13T09:02:45;24.30;99.90
36552;DHT22;22559;54.176;12.102;2023-07-13T09:05:40;24.40;99.90
36552;DHT22;22559;54.176;12.102;2023-07-13T09:11:03;23.50;99.90
36552;DHT22;22559;54.176;12.102;2023-07-13T09:13:56;23.10;99.90
36552;DHT22;22559;54.176;12.102;2023-07-13T09:16:24;22.90;99.90
36552;DHT22;22559;54.176;12.102;2023-07-13T09:18:53;23.30;99.90
36552;DHT22;22559;54.176;12.102;2023-07-13T09:21:36;23.90;99.90
36552;DHT22;22559;54.176;12.102;2023-07-13T09:26:59;24.60;99.90
36552;DHT22;22559;54.176;12.102;2023-07-13T09:29:31;24.90;99.90
36552;DHT22;22559;54.176;12.102;2023-07-13T09:32:02;24.70;99.90
36552;DHT22;22559;54.176;12.102;2023-07-13T09:34:29;24.60;99.90
36552;DHT22;22559;54.176;12.102;2023-07-13T09:36:58;24.10;99.90
36552;DHT22;22559;54.176;12.102;2023-07-13T09:39:28;23.30;99.90
36552;DHT22;22559;54.176;12.102;2023-07-13T09:44:38;20.80;99.90
36552;DHT22;22559;54.176;12.102;2023-07-13T09:47:19;19.20;99.90
36552;DHT22;22559;54.176;12.102;2023-07-13T09:49:45;17.80;99.90
36552;DHT22;22559;54.176;12.102;2023-07-13T09:52:14;17.10;99.90
36552;DHT22;22559;54.176;12.102;2023-07-13T09:54:44;16.70;99.90
36552;DHT22;22559;54.176;12.102;2023-07-13T09:57:17;16.30;99.90
36552;DHT22;22559;54.176;12.102;2023-07-13T09:59:48;16.20;99.90
36552;DHT22;22559;54.176;12.102;2023-07-13T10:02:34;16.20;99.90
36552;DHT22;22559;54.176;12.102;2023-07-13T10:05:05;16.20;99.90
36552;DHT22;22559;54.176;12.102;2023-07-13T10:07:32;16.20;99.90
36552;DHT22;22559;54.176;12.102;2023-07-13T10:10:01;16.40;99.90
36552;DHT22;22559;54.176;12.102;2023-07-13T10:12:30;16.40;99.90
36552;DHT22;22559;54.176;12.102;2023-07-13T10:15:01;16.60;99.90
36552;DHT22;22559;54.176;12.102;2023-07-13T10:17:29;16.80;99.90
36552;DHT22;22559;54.176;12.102;2023-07-13T10:19:59;17.00;99.90
36552;DHT22;22559;54.176;12.102;2023-07-13T10:25:04;17.50;99.90
36552;DHT22;22559;54.176;12.102;2023-07-13T10:27:35;17.90;99.90
36552;DHT22;22559;54.176;12.102;2023-07-13T10:32:38;19.50;99.90
36552;DHT22;22559;54.176;12.102;2023-07-13T10:35:05;20.30;99.90
36552;DHT22;22559;54.176;12.102;2023-07-13T10:38:02;21.30;99.90
36552;DHT22;22559;54.176;12.102;2023-07-13T10:40:40;22.40;99.90
36552;DHT22;22559;54.176;12.102;2023-07-13T10:43:18;23.10;99.90
36552;DHT22;22559;54.176;12.102;2023-07-13T10:45:46;23.50;99.90
36552;DHT22;22559;54.176;12.102;2023-07-13T10:48:15;24.10;99.90
36552;DHT22;22559;54.176;12.102;2023-07-13T10:50:44;24.10;99.90
36552;DHT22;22559;54.176;12.102;2023-07-13T10:53:28;23.70;99.90
36552;DHT22;22559;54.176;12.102;2023-07-13T10:55:55;24.10;99.90
36552;DHT22;22559;54.176;12.102;2023-07-13T10:58:35;24.40;99.90
36552;DHT22;22559;54.176;12.102;2023-07-13T11:03:35;24.50;99.90
36552;DHT22;22559;54.176;12.102;2023-07-13T11:06:16;24.50;99.90
36552;DHT22;22559;54.176;12.102;2023-07-13T11:21:17;25.10;99.90
36552;DHT22;22559;54.176;12.102;2023-07-13T11:23:44;24.80;99.90
36552;DHT22;22559;54.176;12.102;2023-07-13T11:31:56;24.50;99.90
36552;DHT22;22559;54.176;12.102;2023-07-13T11:34:34;25.00;99.90
36552;DHT22;22559;54.176;12.102;2023-07-13T11:37:02;25.00;99.90
36552;DHT22;22559;54.176;12.102;2023-07-13T11:39:39;24.90;99.90
36552;DHT22;22559;54.176;12.102;2023-07-13T11:42:10;24.80;99.90
36552;DHT22;22559;54.176;12.102;2023-07-13T11:44:43;24.30;99.90
36552;DHT22;22559;54.176;12.102;2023-07-13T11:47:17;23.70;99.90
36552;DHT22;22559;54.176;12.102;2023-07-13T11:49:49;23.20;99.90
36552;DHT22;22559;54.176;12.102;2023-07-13T11:52:21;22.90;99.90
36552;DHT22;22559;54.176;12.102;2023-07-13T11:54:50;22.60;99.90
36552;DHT22;22559;54.176;12.102;2023-07-13T11:59:49;23.40;99.90
36552;DHT22;22559;54.176;12.102;2023-07-13T12:02:30;24.20;99.90
36552;DHT22;22559;54.176;12.102;2023-07-13T12:04:57;25.10;99.90
36552;DHT22;22559;54.176;12.102;2023-07-13T12:07:24;25.70;99.90
36552;DHT22;22559;54.176;12.102;2023-07-13T12:09:49;25.30;99.90
36552;DHT22;22559;54.176;12.102;2023-07-13T12:12:20;24.70;99.90
36552;DHT22;22559;54.176;12.102;2023-07-13T12:14:46;24.00;99.90
36552;DHT22;22559;54.176;12.102;2023-07-13T12:17:20;23.40;99.90
36552;DHT22;22559;54.176;12.102;2023-07-13T12:19:48;22.40;99.90
36552;DHT22;22559;54.176;12.102;2023-07-13T12:22:16;21.70;99.90
36552;DHT22;22559;54.176;12.102;2023-07-13T12:24:43;21.70;99.90
36552;DHT22;22559;54.176;12.102;2023-07-13T12:27:24;22.30;99.90
36552;DHT22;22559;54.176;12.102;2023-07-13T12:29:52;22.10;99.90
36552;DHT22;22559;54.176;12.102;2023-07-13T12:32:19;21.70;99.90
36552;DHT22;22559;54.176;12.102;2023-07-13T12:35:14;21.30;99.90
36552;DHT22;22559;54.176;12.102;2023-07-13T12:37:44;20.90;99.90
36552;DHT22;22559;54.176;12.102;2023-07-13T12:40:19;20.50;99.90
36552;DHT22;22559;54.176;12.102;2023-07-13T12:42:47;21.00;99.90
36552;DHT22;22559;54.176;12.102;2023-07-13T12:45:24;22.00;99.90
36552;DHT22;22559;54.176;12.102;2023-07-13T12:47:54;23.00;99.90
36552;DHT22;22559;54.176;12.102;2023-07-13T12:50:23;23.20;99.90
36552;DHT22;22559;54.176;12.102;2023-07-13T12:52:54;22.60;99.90
36552;DHT22;22559;54.176;12.102;2023-07-13T12:55:22;21.70;99.90
36552;DHT22;22559;54.176;12.102;2023-07-13T12:57:54;21.60;99.90
36552;DHT22;22559;54.176;12.102;2023-07-13T13:03:00;21.10;99.90
36552;DHT22;22559;54.176;12.102;2023-07-13T13:05:29;20.80;99.90
36552;DHT22;22559;54.176;12.102;2023-07-13T13:07:55;20.60;99.90
36552;DHT22;22559;54.176;12.102;2023-07-13T13:10:21;20.20;99.90
36552;DHT22;22559;54.176;12.102;2023-07-13T13:12:47;19.80;99.90
36552;DHT22;22559;54.176;12.102;2023-07-13T13:15:13;19.80;99.90
36552;DHT22;22559;54.176;12.102;2023-07-13T13:17:39;20.20;99.90
36552;DHT22;22559;54.176;12.102;2023-07-13T13:20:31;20.30;99.90
36552;DHT22;22559;54.176;12.102;2023-07-13T13:22:57;20.60;99.90
36552;DHT22;22559;54.176;12.102;2023-07-13T13:25:22;21.30;99.90
36552;DHT22;22559;54.176;12.102;2023-07-13T13:27:48;22.20;99.90
36552;DHT22;22559;54.176;12.102;2023-07-13T13:30:17;22.70;99.90
36552;DHT22;22559;54.176;12.102;2023-07-13T13:32:45;23.10;99.90
36552;DHT22;22559;54.176;12.102;2023-07-13T13:35:16;23.20;99.90
36552;DHT22;22559;54.176;12.102;2023-07-13T13:37:43;23.80;99.90
36552;DHT22;22559;54.176;12.102;2023-07-13T13:40:21;23.70;99.90
36552;DHT22;22559;54.176;12.102;2023-07-13T13:42:48;23.60;99.90
36552;DHT22;22559;54.176;12.102;2023-07-13T13:45:14;23.30;99.90
36552;DHT22;22559;54.176;12.102;2023-07-13T13:47:43;23.50;99.90
36552;DHT22;22559;54.176;12.102;2023-07-13T13:52:38;24.10;99.90
36552;DHT22;22559;54.176;12.102;2023-07-13T13:55:15;24.30;99.90
36552;DHT22;22559;54.176;12.102;2023-07-13T13:57:41;25.00;99.90
36552;DHT22;22559;54.176;12.102;2023-07-13T14:00:11;25.10;99.90
36552;DHT22;22559;54.176;12.102;2023-07-13T14:02:40;25.20;99.90
36552;DHT22;22559;54.176;12.102;2023-07-13T14:05:12;25.30;99.90
36552;DHT22;22559;54.176;12.102;2023-07-13T14:07:38;25.40;99.90
36552;DHT22;22559;54.176;12.102;2023-07-13T14:10:16;25.00;99.90
36552;DHT22;22559;54.176;12.102;2023-07-13T14:12:44;25.20;99.90
36552;DHT22;22559;54.176;12.102;2023-07-13T14:15:26;25.30;99.90
36552;DHT22;22559;54.176;12.102;2023-07-13T14:17:53;25.10;99.90
36552;DHT22;22559;54.176;12.102;2023-07-13T14:20:21;25.10;99.90
36552;DHT22;22559;54.176;12.102;2023-07-13T14:22:49;24.90;99.90
36552;DHT22;22559;54.176;12.102;2023-07-13T14:25:16;24.80;99.90
36552;DHT22;22559;54.176;12.102;2023-07-13T14:27:43;25.00;99.90
36552;DHT22;22559;54.176;12.102;2023-07-13T14:30:20;25.20;99.90
36552;DHT22;22559;54.176;12.102;2023-07-13T14:32:46;25.00;99.90
36552;DHT22;22559;54.176;12.102;2023-07-13T14:35:21;24.60;99.90
36552;DHT22;22559;54.176;12.102;2023-07-13T14:37:48;24.30;99.90
36552;DHT22;22559;54.176;12.102;2023-07-13T14:40:28;24.60;99.90
36552;DHT22;22559;54.176;12.102;2023-07-13T14:42:54;24.90;99.90
36552;DHT22;22559;54.176;12.102;2023-07-13T14:45:20;24.80;99.90
36552;DHT22;22559;54.176;12.102;2023-07-13T14:47:49;24.30;99.90
36552;DHT22;22559;54.176;12.102;2023-07-13T14:50:20;23.60;99.90
36552;DHT22;22559;54.176;12.102;2023-07-13T14:52:47;23.10;99.90
36552;DHT22;22559;54.176;12.102;2023-07-13T14:55:19;22.80;99.90
36552;DHT22;22559;54.176;12.102;2023-07-13T14:57:45;22.70;99.90
36552;DHT22;22559;54.176;12.102;2023-07-13T15:00:19;22.70;99.90
36552;DHT22;22559;54.176;12.102;2023-07-13T15:02:48;22.80;99.90
36552;DHT22;22559;54.176;12.102;2023-07-13T15:05:23;22.90;99.90
36552;DHT22;22559;54.176;12.102;2023-07-13T15:07:51;22.90;99.90
36552;DHT22;22559;54.176;12.102;2023-07-13T15:10:22;22.70;99.90
36552;DHT22;22559;54.176;12.102;2023-07-13T15:12:50;22.30;99.90
36552;DHT22;22559;54.176;12.102;2023-07-13T15:15:20;22.40;99.90
36552;DHT22;22559;54.176;12.102;2023-07-13T15:17:47;22.40;99.90
36552;DHT22;22559;54.176;12.102;2023-07-13T15:20:29;22.30;99.90
36552;DHT22;22559;54.176;12.102;2023-07-13T15:22:56;22.20;99.90
36552;DHT22;22559;54.176;12.102;2023-07-13T15:25:26;22.00;99.90
36552;DHT22;22559;54.176;12.102;2023-07-13T15:27:55;21.70;99.90
36552;DHT22;22559;54.176;12.102;2023-07-13T15:30:21;21.60;99.90
36552;DHT22;22559;54.176;12.102;2023-07-13T15:32:48;21.40;99.90
36552;DHT22;22559;54.176;12.102;2023-07-13T15:35:15;21.30;99.90
36552;DHT22;22559;54.176;12.102;2023-07-13T15:37:42;21.20;99.90
36552;DHT22;22559;54.176;12.102;2023-07-13T15:40:08;21.10;99.90
36552;DHT22;22559;54.176;12.102;2023-07-13T15:42:34;21.10;99.90
36552;DHT22;22559;54.176;12.102;2023-07-13T15:45:01;21.10;99.90
36552;DHT22;22559;54.176;12.102;2023-07-13T15:47:27;21.10;99.90
36552;DHT22;22559;54.176;12.102;2023-07-13T15:49:53;21.00;99.90
36552;DHT22;22559;54.176;12.102;2023-07-13T15:52:22;20.90;99.90
36552;DHT22;22559;54.176;12.102;2023-07-13T15:54:49;20.70;99.90
36552;DHT22;22559;54.176;12.102;2023-07-13T15:57:15;20.60;99.90
36552;DHT22;22559;54.176;12.102;2023-07-13T15:59:43;20.50;99.90
36552;DHT22;22559;54.176;12.102;2023-07-13T16:02:14;20.40;99.90
36552;DHT22;22559;54.176;12.102;2023-07-13T16:04:41;20.30;99.90
36552;DHT22;22559;54.176;12.102;2023-07-13T16:07:09;20.20;99.90
36552;DHT22;22559;54.176;12.102;2023-07-13T16:09:35;20.20;99.90
36552;DHT22;22559;54.176;12.102;2023-07-13T16:12:01;20.10;99.90
36552;DHT22;22559;54.176;12.102;2023-07-13T16:14:26;20.10;99.90